Time;durP1;ratioP1;P1;durP2;ratioP2;P2;SDS_P1;SDS_P2;PMS_P1;PMS_P2;Temp;Humidity;BMP_temperature;BMP_pressure;BME280_temperature;BME280_humidity;BME280_pressure;Samples;Min_cycle;Max_cycle;Signal;HPM_P1;HPM_P2
2023/10/22 00:03:19;;;;;;;;;;;13.00;99.90;;;;;;8357745;28;20043;-68
2023/10/22 00:07:21;;;;;;;;;;;13.00;99.90;;;;;;8355122;28;19929;-68
2023/10/22 00:11:23;;;;;;;;;;;13.00;99.90;;;;;;8334257;28;19933;-68
2023/10/22 00:15:25;;;;;;;;;;;13.00;99.90;;;;;;8355383;28;20434;-67
2023/10/22 00:19:27;;;;;;;;;;;13.10;99.90;;;;;;8357296;28;19967;-67
2023/10/22 00:23:28;;;;;;;;;;;13.10;99.90;;;;;;8354144;28;20237;-68
2023/10/22 00:27:30;;;;;;;;;;;13.20;99.90;;;;;;8356875;28;19932;-68
2023/10/22 00:31:32;;;;;;;;;;;13.20;99.90;;;;;;8356286;28;19960;-67
2023/10/22 00:35:33;;;;;;;;;;;13.30;99.90;;;;;;8356289;28;19929;-68
2023/10/22 00:39:35;;;;;;;;;;;13.30;99.90;;;;;;8356659;28;20360;-67
2023/10/22 00:43:36;;;;;;;;;;;13.30;99.90;;;;;;8355348;28;19932;-68
2023/10/22 00:47:38;;;;;;;;;;;13.40;99.90;;;;;;8354573;28;19971;-68
2023/10/22 00:51:40;;;;;;;;;;;13.40;99.90;;;;;;8358115;28;20338;-68
2023/10/22 00:55:44;;;;;;;;;;;13.40;99.90;;;;;;8352816;28;19925;-67
2023/10/22 00:59:46;;;;;;;;;;;13.40;99.90;;;;;;8355706;28;19979;-68
2023/10/22 01:03:48;;;;;;;;;;;13.40;99.90;;;;;;8354696;28;19935;-68
2023/10/22 01:07:50;;;;;;;;;;;13.40;99.90;;;;;;8353234;28;19950;-67
2023/10/22 01:12:02;;;;;;;;;;;13.40;99.90;;;;;;8350937;28;19971;-67
2023/10/22 01:16:04;;;;;;;;;;;13.50;99.90;;;;;;8356133;28;20023;-67
2023/10/22 01:20:05;;;;;;;;;;;13.40;99.90;;;;;;8354345;28;19928;-68
2023/10/22 01:24:07;;;;;;;;;;;13.50;99.90;;;;;;8353303;28;19928;-68
2023/10/22 01:28:09;;;;;;;;;;;13.40;99.90;;;;;;8351559;28;19932;-67
2023/10/22 01:32:11;;;;;;;;;;;13.20;99.90;;;;;;8336028;28;19924;-68
2023/10/22 01:36:12;;;;;;;;;;;13.20;99.90;;;;;;8353184;28;19967;-67
2023/10/22 01:40:14;;;;;;;;;;;13.20;99.90;;;;;;8356209;28;19971;-67
2023/10/22 01:44:16;;;;;;;;;;;13.10;99.90;;;;;;8352503;28;19925;-67
2023/10/22 01:48:17;;;;;;;;;;;13.10;99.90;;;;;;8352383;28;20383;-68
2023/10/22 01:52:19;;;;;;;;;;;13.00;99.90;;;;;;8355339;28;19939;-67
2023/10/22 01:56:21;;;;;;;;;;;13.00;99.90;;;;;;8357237;28;19929;-67
2023/10/22 02:00:22;;;;;;;;;;;13.00;99.90;;;;;;8356000;28;19933;-67
2023/10/22 02:04:24;;;;;;;;;;;12.90;99.90;;;;;;8355338;28;19925;-67
2023/10/22 02:08:25;;;;;;;;;;;12.80;99.90;;;;;;8351417;28;19926;-67
2023/10/22 02:12:28;;;;;;;;;;;12.80;99.90;;;;;;8352098;28;19948;-66
2023/10/22 02:16:29;;;;;;;;;;;12.70;99.90;;;;;;8354587;28;21761;-67
2023/10/22 02:20:31;;;;;;;;;;;12.70;99.90;;;;;;8354579;28;19925;-67
2023/10/22 02:24:33;;;;;;;;;;;12.60;99.90;;;;;;8355702;28;19960;-67
2023/10/22 02:28:34;;;;;;;;;;;12.50;99.90;;;;;;8339992;28;19928;-67
2023/10/22 02:32:36;;;;;;;;;;;12.50;99.90;;;;;;8352591;28;19933;-67
2023/10/22 02:36:38;;;;;;;;;;;12.40;99.90;;;;;;8356229;28;19951;-67
2023/10/22 02:40:39;;;;;;;;;;;12.40;99.90;;;;;;8354057;28;20308;-67
2023/10/22 02:44:41;;;;;;;;;;;12.30;99.90;;;;;;8354368;28;19925;-68
2023/10/22 02:48:42;;;;;;;;;;;12.30;99.90;;;;;;8337339;28;20380;-67
2023/10/22 02:52:44;;;;;;;;;;;12.30;99.90;;;;;;8353709;28;20311;-68
2023/10/22 02:56:46;;;;;;;;;;;12.20;99.90;;;;;;8363772;28;20356;-68
2023/10/22 03:00:48;;;;;;;;;;;12.20;99.90;;;;;;8360164;28;19936;-67
2023/10/22 03:04:50;;;;;;;;;;;12.20;99.90;;;;;;8361498;28;19971;-68
2023/10/22 03:08:51;;;;;;;;;;;12.10;99.90;;;;;;8358601;28;20614;-67
2023/10/22 03:12:53;;;;;;;;;;;12.20;99.90;;;;;;8359138;28;20323;-67
2023/10/22 03:16:56;;;;;;;;;;;12.10;99.90;;;;;;8362482;28;19925;-68
2023/10/22 03:20:59;;;;;;;;;;;12.10;99.90;;;;;;8360165;28;19976;-66
2023/10/22 03:25:01;;;;;;;;;;;12.00;99.90;;;;;;8361878;28;19925;-69
2023/10/22 03:29:02;;;;;;;;;;;11.90;99.90;;;;;;8361512;28;19971;-70
2023/10/22 03:33:04;;;;;;;;;;;11.80;99.90;;;;;;8359101;28;19925;-71
2023/10/22 03:37:08;;;;;;;;;;;11.70;99.90;;;;;;8362077;28;19925;-71
2023/10/22 03:41:10;;;;;;;;;;;11.60;99.90;;;;;;8360235;28;19925;-72
2023/10/22 03:45:12;;;;;;;;;;;11.60;99.90;;;;;;8357320;28;20368;-71
2023/10/22 03:49:14;;;;;;;;;;;11.70;99.90;;;;;;8338050;28;20358;-71
2023/10/22 03:53:16;;;;;;;;;;;11.60;99.90;;;;;;8357428;28;20288;-71
2023/10/22 03:57:17;;;;;;;;;;;11.60;99.90;;;;;;8359142;28;19929;-71
2023/10/22 04:01:19;;;;;;;;;;;11.60;99.90;;;;;;8356379;28;19932;-72
2023/10/22 04:05:20;;;;;;;;;;;11.50;99.90;;;;;;8347826;28;20253;-71
2023/10/22 04:09:22;;;;;;;;;;;11.60;99.90;;;;;;8344771;28;19963;-71
2023/10/22 04:13:24;;;;;;;;;;;11.60;99.90;;;;;;8358110;28;19929;-71
2023/10/22 04:17:25;;;;;;;;;;;11.60;99.90;;;;;;8373184;28;20023;-71
2023/10/22 04:21:27;;;;;;;;;;;11.60;99.90;;;;;;8370305;28;19929;-71
2023/10/22 04:25:29;;;;;;;;;;;11.60;99.90;;;;;;8357077;28;19925;-72
2023/10/22 04:29:30;;;;;;;;;;;11.60;99.90;;;;;;8355236;28;20407;-71
2023/10/22 04:33:32;;;;;;;;;;;11.60;99.90;;;;;;8356659;28;19976;-71
2023/10/22 04:37:33;;;;;;;;;;;11.60;99.90;;;;;;8340257;28;19932;-71
2023/10/22 04:41:35;;;;;;;;;;;11.60;99.90;;;;;;8372208;28;19925;-71
2023/10/22 04:45:37;;;;;;;;;;;11.60;99.90;;;;;;8338891;28;19931;-71
2023/10/22 04:49:38;;;;;;;;;;;11.60;99.90;;;;;;8353262;28;20158;-71
2023/10/22 04:53:40;;;;;;;;;;;11.60;99.90;;;;;;8353088;28;19924;-71
2023/10/22 04:57:42;;;;;;;;;;;11.60;99.90;;;;;;8354243;28;19933;-71
2023/10/22 05:01:43;;;;;;;;;;;11.60;99.90;;;;;;8349058;28;19924;-71
2023/10/22 05:05:46;;;;;;;;;;;11.60;99.90;;;;;;8356422;28;19924;-71
2023/10/22 05:09:47;;;;;;;;;;;11.60;99.90;;;;;;8347407;28;20299;-71
2023/10/22 05:13:49;;;;;;;;;;;11.60;99.90;;;;;;8368843;28;19924;-70
2023/10/22 05:17:51;;;;;;;;;;;11.60;99.90;;;;;;8353604;28;19929;-71
2023/10/22 05:21:52;;;;;;;;;;;11.60;99.90;;;;;;8355046;28;20015;-71
2023/10/22 05:26:04;;;;;;;;;;;11.60;99.90;;;;;;8355532;28;19932;-71
2023/10/22 05:30:06;;;;;;;;;;;11.60;99.90;;;;;;8349915;28;19928;-71
2023/10/22 05:34:08;;;;;;;;;;;11.60;99.90;;;;;;8368944;28;19951;-71
2023/10/22 05:38:10;;;;;;;;;;;11.70;99.90;;;;;;8356269;28;20364;-70
2023/10/22 05:42:12;;;;;;;;;;;11.60;99.90;;;;;;8350362;28;19968;-71
2023/10/22 05:46:13;;;;;;;;;;;11.60;99.90;;;;;;8357240;28;19924;-71
2023/10/22 05:50:15;;;;;;;;;;;11.50;99.90;;;;;;8354097;28;19956;-71
2023/10/22 05:54:17;;;;;;;;;;;11.40;99.90;;;;;;8353707;28;19936;-71
2023/10/22 05:58:19;;;;;;;;;;;11.40;99.90;;;;;;8369626;28;19978;-72
2023/10/22 06:02:20;;;;;;;;;;;11.40;99.90;;;;;;8351627;28;20372;-71
2023/10/22 06:06:22;;;;;;;;;;;11.40;99.90;;;;;;8353155;28;19931;-71
2023/10/22 06:10:27;;;;;;;;;;;11.40;99.90;;;;;;8343754;28;20368;-71
2023/10/22 06:14:29;;;;;;;;;;;11.40;99.90;;;;;;8356415;28;19925;-71
2023/10/22 06:18:31;;;;;;;;;;;11.40;99.90;;;;;;8366561;28;19932;-71
2023/10/22 06:22:33;;;;;;;;;;;11.40;99.90;;;;;;8368645;28;19929;-71
2023/10/22 06:26:34;;;;;;;;;;;11.40;99.90;;;;;;8355389;28;20384;-71
2023/10/22 06:30:36;;;;;;;;;;;11.40;99.90;;;;;;8355422;28;19969;-71
2023/10/22 06:34:38;;;;;;;;;;;11.40;99.90;;;;;;8347834;28;20040;-71
2023/10/22 06:38:40;;;;;;;;;;;11.50;99.90;;;;;;8345510;28;19928;-71
2023/10/22 06:42:42;;;;;;;;;;;11.50;99.90;;;;;;8334469;28;19924;-71
2023/10/22 06:46:44;;;;;;;;;;;11.50;99.90;;;;;;8350766;28;19978;-71
2023/10/22 06:50:45;;;;;;;;;;;11.50;99.90;;;;;;8349172;28;19925;-71
2023/10/22 06:54:47;;;;;;;;;;;11.60;99.90;;;;;;8350581;28;20035;-70
2023/10/22 06:58:49;;;;;;;;;;;11.60;99.90;;;;;;8349341;28;20288;-71
2023/10/22 07:02:50;;;;;;;;;;;11.60;99.90;;;;;;8350151;28;19979;-71
2023/10/22 07:06:52;;;;;;;;;;;11.60;99.90;;;;;;8345522;28;19924;-71
2023/10/22 07:10:54;;;;;;;;;;;11.50;99.90;;;;;;8345370;28;19968;-70
2023/10/22 07:14:55;;;;;;;;;;;11.50;99.90;;;;;;8349356;28;20368;-70
2023/10/22 07:18:57;;;;;;;;;;;11.50;99.90;;;;;;8350237;28;20007;-70
2023/10/22 07:23:01;;;;;;;;;;;11.60;99.90;;;;;;8349701;28;19945;-70
2023/10/22 07:27:03;;;;;;;;;;;11.60;99.90;;;;;;8354132;28;20011;-71
2023/10/22 07:31:04;;;;;;;;;;;11.60;99.90;;;;;;8352387;28;19928;-71
2023/10/22 07:35:07;;;;;;;;;;;11.60;99.90;;;;;;8350990;28;19933;-70
2023/10/22 07:39:11;;;;;;;;;;;11.60;99.90;;;;;;8350668;28;20360;-71
2023/10/22 07:43:14;;;;;;;;;;;11.60;99.90;;;;;;8326236;28;20275;-70
2023/10/22 07:47:15;;;;;;;;;;;11.60;99.90;;;;;;8355145;28;19928;-70
2023/10/22 07:51:17;;;;;;;;;;;11.60;99.90;;;;;;8354995;28;19924;-70
2023/10/22 07:55:19;;;;;;;;;;;11.70;99.90;;;;;;8356385;28;19924;-69
2023/10/22 07:59:21;;;;;;;;;;;11.80;99.90;;;;;;8358428;28;20390;-70
2023/10/22 08:03:22;;;;;;;;;;;11.90;99.90;;;;;;8369552;28;20300;-70
2023/10/22 08:07:24;;;;;;;;;;;11.80;99.90;;;;;;8350403;28;19955;-70
2023/10/22 08:11:26;;;;;;;;;;;11.70;99.90;;;;;;8348767;28;19925;-70
2023/10/22 08:15:27;;;;;;;;;;;11.60;99.90;;;;;;8358737;28;19931;-70
2023/10/22 08:19:29;;;;;;;;;;;11.70;99.90;;;;;;8352174;28;20356;-69
2023/10/22 08:23:31;;;;;;;;;;;11.80;99.90;;;;;;8353323;28;20399;-70
2023/10/22 08:27:33;;;;;;;;;;;11.90;99.90;;;;;;8357485;28;19925;-71
2023/10/22 08:31:34;;;;;;;;;;;12.00;99.90;;;;;;8349024;28;19975;-70
2023/10/22 08:35:36;;;;;;;;;;;12.20;99.90;;;;;;8353831;28;20304;-70
2023/10/22 08:39:38;;;;;;;;;;;12.40;99.90;;;;;;8347045;28;19928;-70
2023/10/22 08:43:41;;;;;;;;;;;12.40;99.90;;;;;;8358969;28;19979;-70
2023/10/22 08:47:42;;;;;;;;;;;12.30;99.90;;;;;;8352427;28;20383;-70
2023/10/22 08:51:44;;;;;;;;;;;12.30;99.90;;;;;;8339321;28;19931;-70
2023/10/22 08:55:46;;;;;;;;;;;12.20;99.90;;;;;;8339757;28;20024;-69
2023/10/22 08:59:48;;;;;;;;;;;12.20;99.90;;;;;;8355981;28;19929;-70
2023/10/22 09:03:50;;;;;;;;;;;12.30;99.90;;;;;;8336677;28;20244;-70
2023/10/22 09:07:52;;;;;;;;;;;12.60;99.90;;;;;;8334958;28;19928;-70
2023/10/22 09:11:58;;;;;;;;;;;12.80;99.90;;;;;;8343138;28;19925;-69
2023/10/22 09:16:00;;;;;;;;;;;13.10;99.90;;;;;;8333587;28;19955;-70
2023/10/22 09:20:02;;;;;;;;;;;13.40;99.90;;;;;;8319681;28;19987;-70
2023/10/22 09:24:06;;;;;;;;;;;13.70;99.90;;;;;;8316071;28;19987;-69
2023/10/22 09:28:13;;;;;;;;;;;13.70;99.90;;;;;;8322015;28;19954;-70
2023/10/22 09:32:14;;;;;;;;;;;13.30;99.90;;;;;;8309692;28;20354;-70
2023/10/22 09:36:17;;;;;;;;;;;13.10;99.90;;;;;;8315258;28;19948;-70
2023/10/22 09:40:20;;;;;;;;;;;13.00;99.90;;;;;;8322810;28;19968;-70
2023/10/22 09:44:21;;;;;;;;;;;13.20;99.90;;;;;;8326447;28;19929;-70
2023/10/22 09:48:26;;;;;;;;;;;13.20;99.90;;;;;;8325947;28;19925;-70
2023/10/22 09:52:29;;;;;;;;;;;13.10;99.90;;;;;;8328950;28;19932;-70
2023/10/22 09:56:32;;;;;;;;;;;13.10;99.90;;;;;;8326564;28;19971;-70
2023/10/22 10:00:34;;;;;;;;;;;13.10;99.90;;;;;;8327135;28;20380;-70
2023/10/22 10:04:49;;;;;;;;;;;13.00;99.90;;;;;;8323519;28;19932;-71
2023/10/22 10:08:52;;;;;;;;;;;13.10;99.90;;;;;;8304304;28;19929;-70
2023/10/22 10:12:54;;;;;;;;;;;13.00;99.90;;;;;;8319541;28;19932;-70
2023/10/22 10:17:00;;;;;;;;;;;13.00;99.90;;;;;;8322049;28;20304;-69
2023/10/22 10:21:25;;;;;;;;;;;13.10;99.90;;;;;;8317476;28;19933;-70
2023/10/22 10:25:31;;;;;;;;;;;13.10;99.90;;;;;;8322515;28;19925;-70
2023/10/22 10:29:32;;;;;;;;;;;13.30;99.90;;;;;;8318048;28;20377;-69
2023/10/22 10:33:53;;;;;;;;;;;13.50;99.90;;;;;;8321426;28;19929;-70
2023/10/22 10:38:13;;;;;;;;;;;13.50;99.90;;;;;;8317772;28;19940;-70
2023/10/22 10:42:46;;;;;;;;;;;13.70;99.90;;;;;;8318772;28;19978;-70
2023/10/22 10:46:48;;;;;;;;;;;13.90;99.90;;;;;;8317840;28;19929;-71
2023/10/22 10:50:50;;;;;;;;;;;14.20;99.90;;;;;;8319563;28;19933;-69
2023/10/22 10:55:01;;;;;;;;;;;14.90;99.90;;;;;;8319934;28;19933;-71
2023/10/22 10:59:04;;;;;;;;;;;15.50;99.90;;;;;;8317001;28;20369;-69
2023/10/22 11:03:06;;;;;;;;;;;15.70;99.90;;;;;;8320846;28;19936;-71
2023/10/22 11:07:08;;;;;;;;;;;15.70;99.90;;;;;;8317883;28;19956;-70
2023/10/22 11:11:26;;;;;;;;;;;15.50;99.90;;;;;;8321153;28;19936;-69
2023/10/22 11:15:32;;;;;;;;;;;15.10;99.90;;;;;;8307539;28;20011;-70
2023/10/22 11:19:34;;;;;;;;;;;14.80;99.90;;;;;;8328653;28;20430;-69
2023/10/22 11:23:37;;;;;;;;;;;14.80;99.90;;;;;;8328502;28;20336;-70
2023/10/22 11:27:39;;;;;;;;;;;15.00;99.90;;;;;;8329791;28;19932;-70
2023/10/22 11:31:57;;;;;;;;;;;15.10;99.90;;;;;;8326044;28;19948;-70
2023/10/22 11:36:00;;;;;;;;;;;15.00;99.90;;;;;;8325086;28;19933;-69
2023/10/22 11:40:22;;;;;;;;;;;14.80;99.90;;;;;;8330770;28;19925;-69
2023/10/22 11:44:30;;;;;;;;;;;14.70;99.90;;;;;;8331255;28;19940;-70
2023/10/22 11:48:35;;;;;;;;;;;14.60;99.90;;;;;;8329232;28;19968;-71
2023/10/22 11:52:38;;;;;;;;;;;14.60;99.90;;;;;;8328918;28;20469;-70
2023/10/22 11:56:40;;;;;;;;;;;14.60;99.90;;;;;;8328118;28;19933;-69
2023/10/22 12:00:42;;;;;;;;;;;14.70;99.90;;;;;;8326913;28;20237;-71
2023/10/22 12:04:44;;;;;;;;;;;14.80;99.90;;;;;;8331200;28;20015;-69
2023/10/22 12:08:46;;;;;;;;;;;14.90;99.90;;;;;;8328903;28;20008;-69
2023/10/22 12:12:48;;;;;;;;;;;15.00;99.90;;;;;;8328236;28;19932;-69
2023/10/22 12:16:50;;;;;;;;;;;15.00;99.90;;;;;;8322296;28;19929;-69
2023/10/22 12:20:52;;;;;;;;;;;15.10;99.90;;;;;;8329272;28;20376;-69
2023/10/22 12:24:56;;;;;;;;;;;15.10;99.90;;;;;;8322506;28;19925;-69
2023/10/22 12:28:58;;;;;;;;;;;15.20;99.90;;;;;;8325954;28;20454;-69
2023/10/22 12:33:00;;;;;;;;;;;15.10;99.90;;;;;;8323859;28;20426;-69
2023/10/22 12:37:02;;;;;;;;;;;15.20;99.90;;;;;;8327655;28;19932;-69
2023/10/22 12:41:04;;;;;;;;;;;15.20;99.90;;;;;;8326553;28;20304;-69
2023/10/22 12:45:05;;;;;;;;;;;15.20;99.90;;;;;;8326709;28;20036;-70
2023/10/22 12:49:07;;;;;;;;;;;15.20;99.90;;;;;;8327142;28;19929;-70
2023/10/22 12:53:09;;;;;;;;;;;15.20;99.90;;;;;;8328563;28;20032;-69
2023/10/22 12:57:10;;;;;;;;;;;15.30;99.90;;;;;;8324550;28;19971;-69
2023/10/22 13:01:15;;;;;;;;;;;15.30;99.90;;;;;;8322363;28;19931;-69
2023/10/22 13:05:16;;;;;;;;;;;15.40;99.90;;;;;;8323740;28;20357;-69
2023/10/22 13:09:18;;;;;;;;;;;15.50;99.90;;;;;;8324869;28;19924;-69
2023/10/22 13:13:20;;;;;;;;;;;15.60;99.90;;;;;;8324156;28;19990;-69
2023/10/22 13:17:21;;;;;;;;;;;15.70;99.90;;;;;;8328482;28;19967;-70
2023/10/22 13:21:23;;;;;;;;;;;15.70;99.90;;;;;;8321548;28;19925;-70
2023/10/22 13:25:25;;;;;;;;;;;15.60;99.90;;;;;;8328240;28;19943;-69
2023/10/22 13:29:26;;;;;;;;;;;15.60;99.90;;;;;;8325555;28;19940;-69
2023/10/22 13:33:28;;;;;;;;;;;15.50;99.90;;;;;;8325216;28;19933;-70
2023/10/22 13:37:30;;;;;;;;;;;15.40;99.90;;;;;;8321924;28;19925;-70
2023/10/22 13:41:32;;;;;;;;;;;15.20;99.90;;;;;;8319828;28;20345;-70
2023/10/22 13:45:36;;;;;;;;;;;15.00;99.90;;;;;;8332869;28;20075;-70
2023/10/22 13:49:39;;;;;;;;;;;15.00;99.90;;;;;;8323622;28;19968;-71
2023/10/22 13:53:40;;;;;;;;;;;15.00;99.90;;;;;;8321551;28;24878;-70
2023/10/22 13:57:42;;;;;;;;;;;15.00;99.90;;;;;;8321453;28;19933;-71
2023/10/22 14:01:44;;;;;;;;;;;15.30;99.90;;;;;;8321981;28;19925;-69
2023/10/22 14:05:52;;;;;;;;;;;15.50;99.90;;;;;;8317695;28;19937;-70
2023/10/22 14:09:53;;;;;;;;;;;15.30;99.90;;;;;;8321694;28;19956;-70
2023/10/22 14:13:57;;;;;;;;;;;15.20;99.90;;;;;;8326249;28;20033;-70
2023/10/22 14:17:59;;;;;;;;;;;15.10;99.90;;;;;;8326227;28;19925;-71
2023/10/22 14:22:01;;;;;;;;;;;15.10;99.90;;;;;;8324660;28;19925;-71
2023/10/22 14:26:04;;;;;;;;;;;15.20;99.90;;;;;;8320341;28;19935;-70
2023/10/22 14:30:06;;;;;;;;;;;15.60;99.90;;;;;;8323079;28;19933;-70
2023/10/22 14:34:08;;;;;;;;;;;15.80;99.90;;;;;;8322490;28;19998;-70
2023/10/22 14:38:24;;;;;;;;;;;15.70;99.90;;;;;;8321714;28;20324;-70
2023/10/22 14:42:26;;;;;;;;;;;15.50;99.90;;;;;;8317237;28;20027;-70
2023/10/22 14:46:27;;;;;;;;;;;15.40;99.90;;;;;;8322873;28;19935;-70
2023/10/22 14:50:29;;;;;;;;;;;15.30;99.90;;;;;;8325532;28;19951;-70
2023/10/22 14:54:31;;;;;;;;;;;15.40;99.90;;;;;;8329134;28;19998;-71
2023/10/22 14:58:33;;;;;;;;;;;15.80;99.90;;;;;;8332042;28;20380;-71
2023/10/22 15:02:34;;;;;;;;;;;16.10;99.90;;;;;;8324402;28;19925;-70
2023/10/22 15:06:36;;;;;;;;;;;16.20;99.90;;;;;;8325489;28;19928;-70
2023/10/22 15:10:39;;;;;;;;;;;16.10;99.90;;;;;;8327003;28;19933;-71
2023/10/22 15:14:41;;;;;;;;;;;16.10;99.90;;;;;;8327102;28;19925;-71
2023/10/22 15:18:42;;;;;;;;;;;16.00;99.90;;;;;;8304981;28;19940;-71
2023/10/22 15:22:44;;;;;;;;;;;16.10;99.90;;;;;;8321978;28;19999;-71
2023/10/22 15:26:47;;;;;;;;;;;16.20;99.90;;;;;;8326695;28;19929;-71
2023/10/22 15:30:48;;;;;;;;;;;16.00;99.90;;;;;;8325475;28;19925;-71
2023/10/22 15:34:50;;;;;;;;;;;15.80;99.90;;;;;;8325022;28;20028;-71
2023/10/22 15:38:51;;;;;;;;;;;15.60;99.90;;;;;;8330733;28;20368;-71
2023/10/22 15:42:53;;;;;;;;;;;15.50;99.90;;;;;;8328216;28;19933;-71
2023/10/22 15:46:56;;;;;;;;;;;15.40;99.90;;;;;;8324752;28;19932;-71
2023/10/22 15:50:58;;;;;;;;;;;15.40;99.90;;;;;;8323811;28;19987;-71
2023/10/22 15:55:00;;;;;;;;;;;15.50;99.90;;;;;;8331241;28;19932;-71
2023/10/22 15:59:02;;;;;;;;;;;15.50;99.90;;;;;;8327441;28;22076;-71
2023/10/22 16:03:04;;;;;;;;;;;15.40;99.90;;;;;;8331688;28;19933;-70
2023/10/22 16:07:06;;;;;;;;;;;15.30;99.90;;;;;;8324270;28;20384;-71
2023/10/22 16:11:08;;;;;;;;;;;15.20;99.90;;;;;;8326539;28;19933;-71
2023/10/22 16:15:15;;;;;;;;;;;15.00;99.90;;;;;;8324082;28;20781;-71
2023/10/22 16:19:17;;;;;;;;;;;14.90;99.90;;;;;;8325975;28;19932;-71
2023/10/22 16:23:19;;;;;;;;;;;14.80;99.90;;;;;;8328582;28;20373;-71
2023/10/22 16:27:21;;;;;;;;;;;14.70;99.90;;;;;;8327022;28;19936;-70
2023/10/22 16:31:22;;;;;;;;;;;14.60;99.90;;;;;;8318743;28;19925;-71
2023/10/22 16:35:24;;;;;;;;;;;14.50;99.90;;;;;;8316376;28;19937;-71
2023/10/22 16:39:26;;;;;;;;;;;14.40;99.90;;;;;;8321760;28;20450;-71
2023/10/22 16:43:28;;;;;;;;;;;14.30;99.90;;;;;;8323143;28;20036;-71
2023/10/22 16:47:30;;;;;;;;;;;14.30;99.90;;;;;;8324061;28;19964;-71
2023/10/22 16:51:31;;;;;;;;;;;14.20;99.90;;;;;;8326308;28;20363;-71
2023/10/22 16:55:34;;;;;;;;;;;14.20;99.90;;;;;;8324306;28;19933;-70
2023/10/22 16:59:36;;;;;;;;;;;14.10;99.90;;;;;;8329996;28;19932;-72
2023/10/22 17:03:38;;;;;;;;;;;14.00;99.90;;;;;;8342228;28;20022;-71
2023/10/22 17:07:40;;;;;;;;;;;13.90;99.90;;;;;;8320362;28;20339;-71
2023/10/22 17:11:42;;;;;;;;;;;13.90;99.90;;;;;;8319085;28;19955;-71
2023/10/22 17:15:43;;;;;;;;;;;13.90;99.90;;;;;;8320855;28;19932;-71
2023/10/22 17:19:45;;;;;;;;;;;13.80;99.90;;;;;;8334322;28;19932;-70
2023/10/22 17:23:47;;;;;;;;;;;13.70;99.90;;;;;;8320870;28;20082;-71
2023/10/22 17:27:49;;;;;;;;;;;13.70;99.90;;;;;;8324677;28;20024;-71
2023/10/22 17:31:51;;;;;;;;;;;13.70;99.90;;;;;;8325245;28;19981;-71
2023/10/22 17:35:54;;;;;;;;;;;13.60;99.90;;;;;;8325825;28;20293;-71
2023/10/22 17:39:56;;;;;;;;;;;13.60;99.90;;;;;;8319402;28;19925;-71
2023/10/22 17:43:58;;;;;;;;;;;13.50;99.90;;;;;;8319215;28;19932;-71
2023/10/22 17:48:00;;;;;;;;;;;13.40;99.90;;;;;;8322916;28;19925;-71
2023/10/22 17:52:01;;;;;;;;;;;13.50;99.90;;;;;;8325386;28;19939;-71
2023/10/22 17:56:04;;;;;;;;;;;13.50;99.90;;;;;;8323787;28;20023;-70
2023/10/22 18:00:10;;;;;;;;;;;13.40;99.90;;;;;;8324396;28;20027;-71
2023/10/22 18:04:12;;;;;;;;;;;13.40;99.90;;;;;;8322264;28;20812;-71
2023/10/22 18:08:14;;;;;;;;;;;13.30;99.90;;;;;;8328979;28;20039;-71
2023/10/22 18:12:15;;;;;;;;;;;13.20;99.90;;;;;;8325487;28;19925;-71
2023/10/22 18:16:19;;;;;;;;;;;13.20;99.90;;;;;;8318746;28;19925;-71
2023/10/22 18:20:21;;;;;;;;;;;13.20;99.90;;;;;;8323462;28;19933;-70
2023/10/22 18:24:35;;;;;;;;;;;13.20;99.90;;;;;;8327930;28;19959;-71
2023/10/22 18:28:38;;;;;;;;;;;13.10;99.90;;;;;;8322586;28;20024;-70
2023/10/22 18:32:40;;;;;;;;;;;13.10;99.90;;;;;;8328718;28;19929;-71
2023/10/22 18:36:42;;;;;;;;;;;13.00;99.90;;;;;;8322962;28;20586;-71
2023/10/22 18:40:46;;;;;;;;;;;12.90;99.90;;;;;;8326058;28;20706;-71
2023/10/22 18:44:49;;;;;;;;;;;12.80;99.90;;;;;;8320221;28;19939;-71
2023/10/22 18:48:52;;;;;;;;;;;12.80;99.90;;;;;;8323272;28;19925;-71
2023/10/22 18:52:54;;;;;;;;;;;12.70;99.90;;;;;;8321490;28;19925;-71
2023/10/22 18:56:55;;;;;;;;;;;12.70;99.90;;;;;;8321460;28;20375;-71
2023/10/22 19:00:57;;;;;;;;;;;12.70;99.90;;;;;;8321479;28;20027;-71
2023/10/22 19:04:59;;;;;;;;;;;12.60;99.90;;;;;;8320463;28;19931;-71
2023/10/22 19:09:03;;;;;;;;;;;12.60;99.90;;;;;;8320375;28;20392;-71
2023/10/22 19:13:06;;;;;;;;;;;12.50;99.90;;;;;;8321943;28;19925;-71
2023/10/22 19:17:08;;;;;;;;;;;12.50;99.90;;;;;;8318804;28;20373;-71
2023/10/22 19:21:09;;;;;;;;;;;12.40;99.90;;;;;;8319593;28;19929;-71
2023/10/22 19:25:11;;;;;;;;;;;12.40;99.90;;;;;;8319344;28;19925;-70
2023/10/22 19:29:13;;;;;;;;;;;12.30;99.90;;;;;;8319007;28;19933;-71
2023/10/22 19:33:15;;;;;;;;;;;12.30;99.90;;;;;;8321131;28;19929;-71
2023/10/22 19:37:17;;;;;;;;;;;12.20;99.90;;;;;;8321140;28;19932;-71
2023/10/22 19:41:20;;;;;;;;;;;12.20;99.90;;;;;;8329783;28;19929;-71
2023/10/22 19:45:21;;;;;;;;;;;12.10;99.90;;;;;;8325947;28;20258;-71
2023/10/22 19:49:23;;;;;;;;;;;12.10;99.90;;;;;;8328930;28;19936;-70
2023/10/22 19:53:25;;;;;;;;;;;12.00;99.90;;;;;;8324741;28;19925;-71
2023/10/22 19:57:27;;;;;;;;;;;11.90;99.90;;;;;;8307851;28;19932;-71
2023/10/22 20:01:28;;;;;;;;;;;11.90;99.90;;;;;;8328054;28;19929;-71
2023/10/22 20:05:34;;;;;;;;;;;11.80;99.90;;;;;;8324429;28;19929;-71
2023/10/22 20:09:35;;;;;;;;;;;11.80;99.90;;;;;;8325674;28;19929;-70
2023/10/22 20:13:37;;;;;;;;;;;11.70;99.90;;;;;;8326761;28;19925;-71
2023/10/22 20:17:39;;;;;;;;;;;11.70;99.90;;;;;;8327377;28;19976;-70
2023/10/22 20:21:41;;;;;;;;;;;11.60;99.90;;;;;;8324226;28;20413;-71
2023/10/22 20:25:44;;;;;;;;;;;11.50;99.90;;;;;;8325211;28;19925;-71
2023/10/22 20:29:45;;;;;;;;;;;11.50;99.90;;;;;;8308709;28;19925;-71
2023/10/22 20:33:47;;;;;;;;;;;11.40;99.90;;;;;;8327581;28;19980;-70
2023/10/22 20:37:49;;;;;;;;;;;11.40;99.90;;;;;;8325424;28;19983;-70
2023/10/22 20:41:51;;;;;;;;;;;11.30;99.90;;;;;;8308027;28;19940;-71
2023/10/22 20:45:59;;;;;;;;;;;11.20;99.90;;;;;;8324263;28;19933;-70
2023/10/22 20:50:01;;;;;;;;;;;11.20;99.90;;;;;;8325814;28;20335;-70
2023/10/22 20:54:03;;;;;;;;;;;11.10;99.90;;;;;;8323641;28;19937;-71
2023/10/22 20:58:04;;;;;;;;;;;11.10;99.90;;;;;;8322629;28;19932;-70
2023/10/22 21:02:06;;;;;;;;;;;11.00;99.90;;;;;;8339247;28;19960;-71
2023/10/22 21:06:08;;;;;;;;;;;11.00;99.90;;;;;;8356231;28;19939;-71
2023/10/22 21:10:09;;;;;;;;;;;11.00;99.90;;;;;;8349047;28;19933;-71
2023/10/22 21:14:11;;;;;;;;;;;11.00;99.90;;;;;;8356096;28;19965;-71
2023/10/22 21:18:13;;;;;;;;;;;10.90;99.90;;;;;;8357539;28;19936;-70
2023/10/22 21:22:14;;;;;;;;;;;10.90;99.90;;;;;;8355825;28;19971;-71
2023/10/22 21:26:16;;;;;;;;;;;10.80;99.90;;;;;;8356889;28;20372;-71
2023/10/22 21:30:18;;;;;;;;;;;10.80;99.90;;;;;;8357085;28;19929;-70
2023/10/22 21:34:19;;;;;;;;;;;10.70;99.90;;;;;;8358845;28;20020;-70
2023/10/22 21:38:21;;;;;;;;;;;10.70;99.90;;;;;;8330516;28;20291;-71
2023/10/22 21:42:22;;;;;;;;;;;10.60;99.90;;;;;;8358200;28;19982;-71
2023/10/22 21:46:24;;;;;;;;;;;10.60;99.90;;;;;;8348533;28;19932;-70
2023/10/22 21:50:26;;;;;;;;;;;10.60;99.90;;;;;;8352995;28;19924;-70
2023/10/22 21:54:27;;;;;;;;;;;10.50;99.90;;;;;;8356411;28;20675;-71
2023/10/22 21:58:30;;;;;;;;;;;10.50;99.90;;;;;;8353825;28;19932;-71
2023/10/22 22:02:32;;;;;;;;;;;10.40;99.90;;;;;;8357985;28;19924;-71
2023/10/22 22:06:34;;;;;;;;;;;10.40;99.90;;;;;;8357385;28;19951;-71
2023/10/22 22:10:36;;;;;;;;;;;10.30;99.90;;;;;;8323975;28;20199;-70
2023/10/22 22:14:38;;;;;;;;;;;10.30;99.90;;;;;;8350122;28;20420;-70
2023/10/22 22:18:41;;;;;;;;;;;10.30;99.90;;;;;;8356068;28;20402;-71
2023/10/22 22:22:43;;;;;;;;;;;10.20;99.90;;;;;;8357781;28;19931;-71
2023/10/22 22:26:45;;;;;;;;;;;10.20;99.90;;;;;;8356563;28;19932;-70
2023/10/22 22:30:46;;;;;;;;;;;10.10;99.90;;;;;;8355275;28;19936;-71
2023/10/22 22:34:48;;;;;;;;;;;10.10;99.90;;;;;;8327360;28;20015;-70
2023/10/22 22:38:50;;;;;;;;;;;10.10;99.90;;;;;;8327566;28;19924;-70
2023/10/22 22:42:51;;;;;;;;;;;10.00;99.90;;;;;;8342899;28;19982;-70
2023/10/22 22:46:53;;;;;;;;;;;10.00;99.90;;;;;;8340090;28;21999;-70
2023/10/22 22:50:55;;;;;;;;;;;10.00;99.90;;;;;;8356237;28;19925;-70
2023/10/22 22:54:56;;;;;;;;;;;10.00;99.90;;;;;;8355955;28;19925;-70
2023/10/22 22:58:58;;;;;;;;;;;10.00;99.90;;;;;;8355960;28;19925;-70
2023/10/22 23:03:00;;;;;;;;;;;10.00;99.90;;;;;;8347911;28;19936;-71
2023/10/22 23:07:01;;;;;;;;;;;10.00;99.90;;;;;;8341888;28;20401;-70
2023/10/22 23:11:03;;;;;;;;;;;9.90;99.90;;;;;;8347157;28;19928;-70
2023/10/22 23:15:05;;;;;;;;;;;9.90;99.90;;;;;;8358955;28;19932;-70
2023/10/22 23:19:07;;;;;;;;;;;10.00;99.90;;;;;;8360725;28;19925;-70
2023/10/22 23:23:08;;;;;;;;;;;9.90;99.90;;;;;;8355241;28;19928;-71
2023/10/22 23:27:10;;;;;;;;;;;10.00;99.90;;;;;;8360202;28;19948;-70
2023/10/22 23:31:12;;;;;;;;;;;10.00;99.90;;;;;;8357169;28;19925;-70